Time;durP1;ratioP1;P1;durP2;ratioP2;P2;SDS_P1;SDS_P2;PMS_P1;PMS_P2;Temp;Humidity;BMP_temperature;BMP_pressure;BME280_temperature;BME280_humidity;BME280_pressure;Samples;Min_cycle;Max_cycle;Signal;HPM_P1;HPM_P2
2024/03/14 06:00:49;;;;;;;;;;;;;;;2.56;100.00;100143.48;113304;1247;22462;-61
2024/03/14 06:03:18;;;;;;;;;;;;;;;2.64;100.00;100149.73;113074;1241;23172;-59
2024/03/14 06:05:50;;;;;;;;;;;;;;;2.73;100.00;100149.13;113024;1247;22422;-59
2024/03/14 06:08:36;;;;;;;;;;;;;;;2.79;100.00;100147.08;112847;1248;22386;-62
2024/03/14 06:11:10;;;;;;;;;;;;;;;2.82;100.00;100150.24;113086;1247;22501;-61
2024/03/14 06:13:42;;;;;;;;;;;;;;;2.83;100.00;100149.91;113093;1247;22357;-60
2024/03/14 06:16:41;;;;;;;;;;;;;;;2.83;100.00;100152.34;113030;1248;22427;-61
2024/03/14 06:19:35;;;;;;;;;;;;;;;2.83;100.00;100148.71;112878;1248;22416;-62
2024/03/14 06:22:10;;;;;;;;;;;;;;;2.82;100.00;100154.38;112912;1246;23039;-61
2024/03/14 06:25:07;;;;;;;;;;;;;;;2.82;100.00;100151.27;112925;1247;22401;-62
2024/03/14 06:28:39;;;;;;;;;;;;;;;2.85;100.00;100148.09;112894;1248;22869;-61
2024/03/14 06:31:28;;;;;;;;;;;;;;;2.89;100.00;100144.61;112930;1248;23752;-61
2024/03/14 06:34:30;;;;;;;;;;;;;;;2.90;100.00;100144.28;112581;1248;22419;-61
2024/03/14 06:46:59;;;;;;;;;;;;;;;3.01;99.25;100155.61;112709;1246;22638;-62
2024/03/14 07:02:54;;;;;;;;;;;;;;;3.44;97.42;100164.40;112978;1247;23011;-62
2024/03/14 07:26:24;;;;;;;;;;;;;;;4.21;93.56;100171.15;112626;1249;23196;-60
2024/03/14 07:33:22;;;;;;;;;;;;;;;4.36;92.25;100174.07;112992;1245;22599;-61
2024/03/14 07:36:29;;;;;;;;;;;;;;;4.50;92.01;100175.95;112694;1249;22389;-59
2024/03/14 07:39:25;;;;;;;;;;;;;;;4.62;91.32;100178.27;112599;1249;22437;-60
2024/03/14 07:46:27;;;;;;;;;;;;;;;4.78;90.67;100179.16;112733;1249;22325;-62
2024/03/14 07:49:33;;;;;;;;;;;;;;;4.80;90.51;100179.54;112624;1249;22905;-61
2024/03/14 07:58:11;;;;;;;;;;;;;;;4.93;89.49;100189.84;112940;1249;22995;-63
2024/03/14 08:01:15;;;;;;;;;;;;;;;4.93;89.40;100194.34;112786;1249;22448;-60
2024/03/14 08:04:49;;;;;;;;;;;;;;;4.92;88.14;100194.31;112301;1254;23322;-64
2024/03/14 08:07:22;;;;;;;;;;;;;;;4.87;88.21;100195.08;112217;1254;22878;-61
2024/03/14 08:11:12;;;;;;;;;;;;;;;4.80;88.09;100194.06;112888;1248;22529;-61
2024/03/14 08:14:06;;;;;;;;;;;;;;;4.81;88.19;100191.50;113118;1248;22465;-65
2024/03/14 08:16:57;;;;;;;;;;;;;;;4.86;88.30;100186.59;112813;1246;22375;-61
2024/03/14 08:20:07;;;;;;;;;;;;;;;4.91;88.23;100188.58;112826;1247;23125;-61
2024/03/14 08:23:04;;;;;;;;;;;;;;;4.95;88.15;100190.74;113039;1247;22411;-62
2024/03/14 08:25:46;;;;;;;;;;;;;;;5.00;87.94;100188.09;113002;1247;22810;-61
2024/03/14 08:28:34;;;;;;;;;;;;;;;5.09;88.24;100190.01;113039;1242;23133;-62
2024/03/14 08:35:20;;;;;;;;;;;;;;;5.40;88.01;100190.61;112982;1247;22474;-56
2024/03/14 08:42:35;;;;;;;;;;;;;;;5.62;87.16;100196.39;113037;1247;22373;-56
2024/03/14 08:53:12;;;;;;;;;;;;;;;5.87;85.89;100201.02;112946;1247;22367;-57
2024/03/14 08:56:19;;;;;;;;;;;;;;;5.92;85.74;100192.45;112932;1247;22504;-60
2024/03/14 08:59:35;;;;;;;;;;;;;;;5.92;85.44;100194.19;112917;1247;22402;-60
2024/03/14 09:14:35;;;;;;;;;;;;;;;5.44;85.36;100197.80;113051;1247;22554;-56
2024/03/14 09:18:03;;;;;;;;;;;;;;;5.35;85.58;100192.77;112883;1247;22327;-56
2024/03/14 09:25:02;;;;;;;;;;;;;;;5.44;86.61;100192.26;112959;1247;22430;-56
2024/03/14 09:28:26;;;;;;;;;;;;;;;5.60;86.50;100194.80;113009;1234;22332;-58
2024/03/14 09:31:20;;;;;;;;;;;;;;;5.75;86.27;100194.55;112788;1247;22918;-57
2024/03/14 09:33:52;;;;;;;;;;;;;;;5.88;85.84;100193.55;112929;1247;22498;-57
2024/03/14 09:36:28;;;;;;;;;;;;;;;5.98;85.36;100197.58;112940;1247;22332;-58
2024/03/14 09:38:56;;;;;;;;;;;;;;;6.10;85.17;100200.55;112910;1247;22458;-56
2024/03/14 09:41:25;;;;;;;;;;;;;;;6.18;84.71;100203.61;112876;1247;22354;-59
2024/03/14 09:43:59;;;;;;;;;;;;;;;6.22;84.17;100204.39;112889;1247;22432;-60
2024/03/14 09:46:27;;;;;;;;;;;;;;;6.23;83.97;100209.59;113033;1247;22372;-59
2024/03/14 09:53:32;;;;;;;;;;;;;;;6.18;83.93;100206.05;113061;1247;22370;-56
2024/03/14 10:00:50;;;;;;;;;;;;;;;6.17;83.71;100202.39;113078;1247;22435;-57
2024/03/14 10:07:36;;;;;;;;;;;;;;;5.91;83.78;100195.02;112602;1249;22449;-58
2024/03/14 10:10:09;;;;;;;;;;;;;;;5.79;84.42;100196.52;112819;1246;22789;-59
2024/03/14 10:12:38;;;;;;;;;;;;;;;5.71;84.64;100200.71;112860;1246;22510;-56
2024/03/14 10:15:13;;;;;;;;;;;;;;;5.65;85.24;100204.75;112782;1246;23078;-56
2024/03/14 10:17:42;;;;;;;;;;;;;;;5.60;85.97;100210.71;113025;1246;22344;-59
2024/03/14 10:20:14;;;;;;;;;;;;;;;5.54;86.04;100213.55;113068;1246;23232;-59
2024/03/14 10:22:49;;;;;;;;;;;;;;;5.46;86.21;100215.81;112823;1246;22408;-56
2024/03/14 10:25:30;;;;;;;;;;;;;;;5.37;86.33;100221.52;112781;1246;23120;-59
2024/03/14 10:28:17;;;;;;;;;;;;;;;5.31;86.64;100219.66;113065;1246;22322;-59
2024/03/14 10:32:00;;;;;;;;;;;;;;;5.27;86.99;100217.51;113047;1246;22367;-59
2024/03/14 10:34:45;;;;;;;;;;;;;;;5.23;87.47;100216.75;113014;1246;22507;-57
2024/03/14 10:38:23;;;;;;;;;;;;;;;5.25;88.24;100220.59;112492;1251;22438;-57
2024/03/14 10:50:57;;;;;;;;;;;;;;;5.36;88.40;100215.62;112583;1251;22425;-58
2024/03/14 11:18:41;;;;;;;;;;;;;;;4.71;90.23;100219.27;113234;1246;22333;-58
2024/03/14 11:30:35;;;;;;;;;;;;;;;4.52;91.37;100227.96;112972;1247;22403;-56
2024/03/14 11:33:55;;;;;;;;;;;;;;;4.53;91.97;100228.04;113128;1247;22376;-57
2024/03/14 11:41:52;;;;;;;;;;;;;;;4.57;92.36;100231.02;112990;1247;22335;-59
2024/03/14 11:45:16;;;;;;;;;;;;;;;4.57;92.75;100232.39;113102;1247;22379;-58
2024/03/14 11:47:57;;;;;;;;;;;;;;;4.53;92.94;100231.29;112876;1247;22342;-57
2024/03/14 11:51:18;;;;;;;;;;;;;;;4.52;93.24;100227.84;112929;1247;23089;-58
2024/03/14 11:53:52;;;;;;;;;;;;;;;4.52;93.46;100235.27;112914;1247;23197;-56
2024/03/14 12:00:37;;;;;;;;;;;;;;;4.53;94.45;100237.69;112966;1247;22514;-59
2024/03/14 12:03:06;;;;;;;;;;;;;;;4.52;94.55;100241.10;113111;1247;22846;-57
2024/03/14 12:05:53;;;;;;;;;;;;;;;4.49;94.43;100238.47;112846;1247;22402;-59
2024/03/14 12:08:22;;;;;;;;;;;;;;;4.46;94.55;100238.73;112928;1247;22347;-57
2024/03/14 12:11:12;;;;;;;;;;;;;;;4.43;94.71;100238.14;112843;1247;22396;-56
2024/03/14 12:14:22;;;;;;;;;;;;;;;4.41;95.26;100236.70;112886;1247;22459;-57
2024/03/14 12:17:10;;;;;;;;;;;;;;;4.43;95.79;100236.24;112904;1247;22403;-55
2024/03/14 12:20:05;;;;;;;;;;;;;;;4.45;96.12;100232.30;113016;1245;22452;-57
2024/03/14 12:22:46;;;;;;;;;;;;;;;4.44;96.05;100231.26;112750;1247;22351;-59
2024/03/14 12:25:16;;;;;;;;;;;;;;;4.45;96.34;100228.67;112741;1249;22467;-61
2024/03/14 12:28:05;;;;;;;;;;;;;;;4.48;96.78;100227.73;112708;1249;22387;-59
2024/03/14 12:31:19;;;;;;;;;;;;;;;4.51;96.70;100229.86;112935;1246;22448;-57
2024/03/14 12:33:50;;;;;;;;;;;;;;;4.55;96.99;100236.86;112966;1246;22344;-57
2024/03/14 12:36:29;;;;;;;;;;;;;;;4.61;96.81;100232.16;113002;1247;23162;-58
2024/03/14 12:39:28;;;;;;;;;;;;;;;4.64;96.79;100231.04;112909;1247;22998;-56
2024/03/14 12:41:56;;;;;;;;;;;;;;;4.64;97.14;100230.00;112946;1247;22823;-57
2024/03/14 12:44:30;;;;;;;;;;;;;;;4.64;97.02;100228.61;112717;1247;22371;-64
2024/03/14 12:47:01;;;;;;;;;;;;;;;4.65;97.36;100227.96;112924;1247;22515;-55
2024/03/14 12:49:37;;;;;;;;;;;;;;;4.67;97.58;100227.30;112736;1247;22361;-59
2024/03/14 12:55:38;;;;;;;;;;;;;;;4.71;98.54;100228.95;112892;1247;23164;-58
2024/03/14 12:58:55;;;;;;;;;;;;;;;4.72;98.53;100237.95;112631;1247;22600;-58
2024/03/14 13:01:37;;;;;;;;;;;;;;;4.73;98.87;100237.96;112771;1247;22531;-57
2024/03/14 13:04:10;;;;;;;;;;;;;;;4.75;99.26;100238.34;112704;1247;22490;-56
2024/03/14 13:11:42;;;;;;;;;;;;;;;4.74;98.97;100237.14;112826;1246;23280;-56
2024/03/14 13:14:25;;;;;;;;;;;;;;;4.74;99.14;100236.60;112590;1248;22426;-56
2024/03/14 13:17:04;;;;;;;;;;;;;;;4.76;99.28;100230.27;112604;1248;22850;-56
2024/03/14 13:19:39;;;;;;;;;;;;;;;4.78;99.39;100231.34;112631;1248;22774;-56
2024/03/14 13:22:10;;;;;;;;;;;;;;;4.80;99.68;100229.48;112545;1248;22537;-56
2024/03/14 13:24:38;;;;;;;;;;;;;;;4.82;99.89;100227.45;112575;1248;22827;-57
2024/03/14 13:27:08;;;;;;;;;;;;;;;4.83;99.82;100222.47;112708;1248;22997;-56
2024/03/14 13:29:38;;;;;;;;;;;;;;;4.83;100.00;100220.92;112639;1248;22856;-58
2024/03/14 13:32:12;;;;;;;;;;;;;;;4.83;100.00;100219.53;112599;1248;22370;-57
2024/03/14 13:34:43;;;;;;;;;;;;;;;4.82;100.00;100223.15;112639;1248;22429;-55
2024/03/14 13:40:39;;;;;;;;;;;;;;;4.83;100.00;100225.23;112841;1247;22512;-55
2024/03/14 13:43:10;;;;;;;;;;;;;;;4.85;100.00;100229.41;112904;1247;22359;-59
2024/03/14 13:45:53;;;;;;;;;;;;;;;4.87;100.00;100224.61;112945;1247;22404;-55
2024/03/14 13:48:21;;;;;;;;;;;;;;;4.90;100.00;100226.08;113009;1247;22408;-55
2024/03/14 13:50:51;;;;;;;;;;;;;;;4.94;100.00;100228.59;113017;1244;22418;-62
2024/03/14 13:53:26;;;;;;;;;;;;;;;4.97;100.00;100236.25;112901;1248;22332;-59
2024/03/14 13:56:06;;;;;;;;;;;;;;;4.97;100.00;100236.94;112806;1247;22407;-57
2024/03/14 13:58:39;;;;;;;;;;;;;;;4.97;100.00;100232.10;112850;1248;22314;-57
2024/03/14 14:01:21;;;;;;;;;;;;;;;4.98;100.00;100228.65;112801;1248;22404;-60
2024/03/14 14:03:54;;;;;;;;;;;;;;;4.97;100.00;100226.73;112922;1246;22416;-60
2024/03/14 14:06:22;;;;;;;;;;;;;;;4.97;100.00;100227.09;113007;1248;22868;-56
2024/03/14 14:08:55;;;;;;;;;;;;;;;4.96;100.00;100230.35;113122;1248;23242;-60
2024/03/14 14:11:39;;;;;;;;;;;;;;;4.93;100.00;100233.58;113068;1247;22338;-59
2024/03/14 14:14:22;;;;;;;;;;;;;;;4.93;100.00;100231.50;113080;1248;23230;-60
2024/03/14 14:16:50;;;;;;;;;;;;;;;4.95;100.00;100233.10;113039;1247;22355;-59
2024/03/14 14:19:17;;;;;;;;;;;;;;;4.95;100.00;100236.73;113128;1248;22409;-58
2024/03/14 14:21:46;;;;;;;;;;;;;;;4.97;100.00;100235.04;113021;1247;22379;-57
2024/03/14 14:24:27;;;;;;;;;;;;;;;4.99;100.00;100239.40;113066;1247;22393;-59
2024/03/14 14:26:57;;;;;;;;;;;;;;;5.00;100.00;100235.98;113138;1247;23007;-57
2024/03/14 14:29:53;;;;;;;;;;;;;;;5.00;100.00;100237.55;113158;1247;22419;-59
2024/03/14 14:32:38;;;;;;;;;;;;;;;5.00;100.00;100235.98;113048;1247;22396;-60
2024/03/14 14:35:08;;;;;;;;;;;;;;;5.02;100.00;100238.45;113020;1248;22416;-57
2024/03/14 14:37:41;;;;;;;;;;;;;;;5.06;100.00;100239.56;113176;1247;22387;-59
2024/03/14 14:40:12;;;;;;;;;;;;;;;5.10;100.00;100240.84;113036;1247;22410;-60
2024/03/14 14:42:42;;;;;;;;;;;;;;;5.14;100.00;100236.26;113071;1247;22344;-57
2024/03/14 14:45:10;;;;;;;;;;;;;;;5.15;100.00;100241.80;113145;1247;22392;-60
2024/03/14 14:47:40;;;;;;;;;;;;;;;5.15;100.00;100236.28;113151;1247;22375;-57
2024/03/14 14:50:08;;;;;;;;;;;;;;;5.16;100.00;100238.55;113247;1248;23249;-57
2024/03/14 14:52:41;;;;;;;;;;;;;;;5.16;100.00;100244.10;113123;1248;22417;-55
